createdAt,value
2023-09-11T00:01:02.398Z,9.10
2023-09-11T00:03:30.273Z,10.30
2023-09-11T00:06:07.781Z,9.20
2023-09-11T00:08:36.127Z,8.48
2023-09-11T00:11:04.816Z,10.70
2023-09-11T00:13:32.998Z,7.47
2023-09-11T00:16:00.932Z,9.48
2023-09-11T00:18:28.700Z,8.67
2023-09-11T00:20:56.454Z,9.25
2023-09-11T00:23:24.248Z,8.93
2023-09-11T00:25:51.936Z,9.20
2023-09-11T00:28:19.782Z,10.13
2023-09-11T00:30:47.438Z,8.60
2023-09-11T00:33:15.264Z,8.65
2023-09-11T00:35:46.786Z,8.38
2023-09-11T00:38:14.590Z,8.27
2023-09-11T00:40:42.237Z,11.00
2023-09-11T00:43:09.849Z,9.00
2023-09-11T00:45:37.822Z,9.75
2023-09-11T00:48:06.216Z,9.30
2023-09-11T00:50:34.395Z,11.75
2023-09-11T00:53:04.192Z,10.02
2023-09-11T00:55:31.989Z,10.63
2023-09-11T00:57:59.679Z,9.15
2023-09-11T01:00:27.809Z,9.82
2023-09-11T01:02:55.923Z,9.75
2023-09-11T01:05:24.187Z,8.27
2023-09-11T01:07:52.018Z,8.87
2023-09-11T01:10:19.780Z,10.65
2023-09-11T01:12:47.700Z,10.88
2023-09-11T01:15:15.330Z,8.88
2023-09-11T01:18:08.608Z,11.30
2023-09-11T01:20:51.226Z,10.70
2023-09-11T01:23:50.129Z,10.23
2023-09-11T01:27:07.639Z,11.68
2023-09-11T01:29:35.920Z,9.07
2023-09-11T01:32:06.556Z,9.63
2023-09-11T01:34:34.248Z,11.67
2023-09-11T01:37:01.901Z,10.77
2023-09-11T01:39:29.789Z,9.13
2023-09-11T01:42:01.922Z,9.52
2023-09-11T01:44:44.882Z,9.60
2023-09-11T01:47:17.343Z,9.67
2023-09-11T01:49:47.069Z,9.27
2023-09-11T01:52:16.869Z,9.60
2023-09-11T01:54:44.862Z,11.02
2023-09-11T01:57:12.597Z,9.38
2023-09-11T01:59:40.274Z,8.37
2023-09-11T02:02:07.923Z,10.68
2023-09-11T02:04:35.650Z,9.27
2023-09-11T02:07:03.369Z,9.20
2023-09-11T02:09:31.079Z,9.90
2023-09-11T02:11:59.570Z,9.10
2023-09-11T02:14:29.197Z,11.55
2023-09-11T02:17:04.121Z,11.32
2023-09-11T02:19:33.140Z,9.00
2023-09-11T02:22:01.645Z,9.40
2023-09-11T02:24:29.298Z,9.73
2023-09-11T02:26:58.221Z,14.20
2023-09-11T02:29:26.270Z,9.90
2023-09-11T02:31:54.281Z,11.07
2023-09-11T02:34:22.273Z,9.23
2023-09-11T02:36:50.093Z,9.77
2023-09-11T02:39:18.026Z,11.35
2023-09-11T02:41:45.964Z,9.70
2023-09-11T02:44:13.870Z,10.20
2023-09-11T02:46:41.811Z,10.43
2023-09-11T02:49:09.826Z,15.90
2023-09-11T02:51:37.818Z,12.68
2023-09-11T02:54:05.922Z,12.82
2023-09-11T02:56:35.757Z,12.05
2023-09-11T02:59:03.753Z,11.63
2023-09-11T03:01:31.668Z,9.93
2023-09-11T03:03:59.546Z,12.00
2023-09-11T03:06:27.574Z,11.13
2023-09-11T03:08:58.167Z,11.45
2023-09-11T03:11:26.309Z,10.40
2023-09-11T03:13:54.315Z,13.40
2023-09-11T03:16:22.146Z,14.45
2023-09-11T03:18:50.170Z,12.40
2023-09-11T03:21:18.170Z,15.13
2023-09-11T03:23:46.464Z,12.77
2023-09-11T03:26:18.230Z,12.40
2023-09-11T03:28:52.817Z,13.52
2023-09-11T03:31:20.999Z,11.98
2023-09-11T03:33:49.285Z,14.15
2023-09-11T03:36:18.646Z,12.18
2023-09-11T03:38:46.982Z,10.67
2023-09-11T03:41:15.801Z,14.27
2023-09-11T03:43:43.700Z,13.80
2023-09-11T03:46:14.032Z,11.32
2023-09-11T03:48:42.905Z,13.40
2023-09-11T03:51:11.182Z,11.37
2023-09-11T03:53:44.479Z,11.43
2023-09-11T03:56:16.089Z,12.65
2023-09-11T03:58:47.547Z,14.77
2023-09-11T04:01:15.438Z,12.90
2023-09-11T04:03:44.535Z,14.37
2023-09-11T04:06:12.764Z,13.55
2023-09-11T04:08:40.774Z,11.82
2023-09-11T04:11:08.728Z,13.82
2023-09-11T04:13:36.759Z,16.17
2023-09-11T04:16:04.916Z,15.23
2023-09-11T04:18:33.038Z,11.88
2023-09-11T04:21:05.082Z,11.63
2023-09-11T04:23:33.073Z,12.32
2023-09-11T04:26:01.389Z,18.48
2023-09-11T04:28:29.366Z,13.80
2023-09-11T04:30:57.309Z,15.13
2023-09-11T04:33:25.219Z,18.13
2023-09-11T04:35:53.056Z,19.13
2023-09-11T04:38:20.960Z,25.17
2023-09-11T04:40:48.584Z,14.80
2023-09-11T04:43:16.366Z,22.60
2023-09-11T04:45:44.104Z,20.50
2023-09-11T04:48:11.815Z,24.30
2023-09-11T04:50:39.633Z,18.05
2023-09-11T04:53:07.382Z,16.90
2023-09-11T04:55:35.025Z,47.35
2023-09-11T04:58:02.710Z,28.23
2023-09-11T05:00:31.903Z,66.75
2023-09-11T05:02:59.837Z,29.92
2023-09-11T05:05:27.766Z,28.77
2023-09-11T05:07:55.997Z,28.73
2023-09-11T05:10:23.588Z,44.55
2023-09-11T05:12:51.214Z,22.98
2023-09-11T05:15:18.916Z,24.65
2023-09-11T05:17:46.585Z,17.77
2023-09-11T05:20:14.319Z,24.83
2023-09-11T05:22:42.027Z,16.58
2023-09-11T05:25:10.422Z,15.77
2023-09-11T05:27:38.306Z,36.78
2023-09-11T05:30:06.876Z,79.40
2023-09-11T05:32:35.344Z,80.68
2023-09-11T05:35:04.042Z,85.13
2023-09-11T05:37:32.100Z,58.45
2023-09-11T05:40:01.972Z,38.85
2023-09-11T05:42:30.341Z,52.07
2023-09-11T05:44:58.331Z,18.23
2023-09-11T05:47:26.534Z,17.20
2023-09-11T05:49:54.478Z,21.48
2023-09-11T05:52:22.315Z,15.63
2023-09-11T05:54:50.201Z,15.83
2023-09-11T05:57:18.150Z,15.98
2023-09-11T05:59:47.461Z,15.93
2023-09-11T06:02:15.578Z,13.75
2023-09-11T06:04:43.653Z,15.05
2023-09-11T06:07:12.836Z,15.63
2023-09-11T06:09:41.001Z,16.42
2023-09-11T06:12:09.267Z,13.23
2023-09-11T06:14:40.088Z,10.80
2023-09-11T06:17:07.926Z,13.95
2023-09-11T06:19:39.735Z,12.90
2023-09-11T06:22:07.780Z,13.95
2023-09-11T06:24:35.690Z,30.65
2023-09-11T06:27:08.443Z,28.48
2023-09-11T06:29:36.537Z,17.02
2023-09-11T06:32:05.011Z,21.60
2023-09-11T06:34:33.236Z,16.23
2023-09-11T06:37:01.235Z,12.98
2023-09-11T06:39:29.949Z,14.48
2023-09-11T06:41:57.948Z,10.95
2023-09-11T06:44:25.785Z,14.90
2023-09-11T06:46:54.035Z,9.95
2023-09-11T06:49:22.258Z,14.95
2023-09-11T06:51:51.186Z,11.43
2023-09-11T06:54:19.095Z,11.23
2023-09-11T06:56:48.535Z,13.07
2023-09-11T06:59:16.524Z,16.30
2023-09-11T07:01:44.508Z,12.05
2023-09-11T07:04:12.904Z,12.68
2023-09-11T07:06:41.996Z,10.90
2023-09-11T07:09:10.451Z,9.77
2023-09-11T07:11:38.731Z,14.57
2023-09-11T07:14:10.265Z,15.38
2023-09-11T07:16:38.159Z,28.02
2023-09-11T07:19:06.153Z,23.35
2023-09-11T07:21:34.126Z,13.73
2023-09-11T07:24:02.010Z,16.02
2023-09-11T07:26:30.295Z,25.48
2023-09-11T07:29:02.650Z,25.52
2023-09-11T07:31:32.737Z,13.40
2023-09-11T07:34:01.149Z,12.00
2023-09-11T07:36:30.756Z,23.27
2023-09-11T07:38:58.961Z,16.67
2023-09-11T07:41:26.914Z,14.93
2023-09-11T07:43:55.794Z,12.40
2023-09-11T07:46:27.431Z,15.30
2023-09-11T07:48:58.549Z,15.52
2023-09-11T07:51:28.033Z,13.20
2023-09-11T07:53:55.949Z,15.25
2023-09-11T07:56:24.205Z,12.25
2023-09-11T07:58:52.063Z,21.50
2023-09-11T08:01:20.196Z,13.05
2023-09-11T08:03:49.100Z,14.35
2023-09-11T08:06:17.179Z,12.73
2023-09-11T08:08:45.157Z,14.35
2023-09-11T08:11:18.072Z,21.57
2023-09-11T08:13:51.631Z,15.13
2023-09-11T08:16:19.732Z,15.55
2023-09-11T08:18:47.874Z,14.20
2023-09-11T08:21:18.249Z,12.68
2023-09-11T08:23:46.262Z,13.00
2023-09-11T08:26:18.949Z,16.95
2023-09-11T08:28:46.869Z,13.35
2023-09-11T08:31:14.575Z,15.60
2023-09-11T08:36:16.203Z,13.87
2023-09-11T08:38:46.336Z,11.82
2023-09-11T08:41:18.852Z,22.63
2023-09-11T08:43:46.608Z,15.38
2023-09-11T08:46:19.792Z,14.40
2023-09-11T08:48:50.890Z,13.83
2023-09-11T08:51:24.405Z,21.77
2023-09-11T08:53:56.316Z,17.27
2023-09-11T08:56:24.503Z,22.98
2023-09-11T08:58:53.621Z,24.33
2023-09-11T09:01:22.728Z,16.43
2023-09-11T09:03:53.628Z,20.48
2023-09-11T09:06:21.629Z,21.88
2023-09-11T09:08:49.888Z,20.52
2023-09-11T09:11:18.308Z,23.90
2023-09-11T09:13:45.987Z,32.17
2023-09-11T09:16:13.792Z,29.27
2023-09-11T09:18:49.758Z,29.00
2023-09-11T09:21:19.299Z,32.15
2023-09-11T09:23:47.042Z,30.08
2023-09-11T09:26:15.905Z,30.87
2023-09-11T09:28:48.964Z,30.98
2023-09-11T09:31:26.754Z,26.17
2023-09-11T09:33:57.629Z,24.75
2023-09-11T09:36:29.859Z,16.02
2023-09-11T09:38:58.559Z,18.67
2023-09-11T09:41:26.414Z,26.05
2023-09-11T09:43:56.085Z,15.90
2023-09-11T09:46:24.690Z,15.07
2023-09-11T09:48:53.288Z,15.38
2023-09-11T09:51:22.814Z,18.30
2023-09-11T09:53:55.123Z,17.63
2023-09-11T09:56:23.326Z,16.75
2023-09-11T09:58:52.690Z,12.43
2023-09-11T10:01:23.889Z,11.52
2023-09-11T10:03:55.084Z,15.77
2023-09-11T10:06:28.245Z,15.75
2023-09-11T10:09:11.922Z,17.15
2023-09-11T10:11:43.051Z,13.75
2023-09-11T10:14:12.705Z,13.02
2023-09-11T10:16:47.544Z,12.10
2023-09-11T10:19:18.578Z,14.15
2023-09-11T10:21:47.648Z,13.90
2023-09-11T10:24:16.375Z,21.08
2023-09-11T10:26:53.134Z,12.90
2023-09-11T10:29:50.677Z,13.10
2023-09-11T10:32:27.594Z,13.50
2023-09-11T10:34:55.487Z,21.15
2023-09-11T10:37:23.445Z,26.05
2023-09-11T10:39:53.165Z,17.27
2023-09-11T10:42:21.045Z,14.60
2023-09-11T10:44:48.810Z,17.80
2023-09-11T10:47:17.011Z,20.65
2023-09-11T10:49:51.209Z,18.17
2023-09-11T10:52:19.057Z,19.27
2023-09-11T10:54:48.790Z,23.40
2023-09-11T10:57:16.490Z,20.98
2023-09-11T10:59:44.251Z,22.52
2023-09-11T11:02:12.124Z,25.35
2023-09-11T11:04:41.169Z,22.73
2023-09-11T11:07:09.550Z,23.37
2023-09-11T11:09:42.374Z,24.02
2023-09-11T11:12:14.844Z,28.83
2023-09-11T11:14:43.244Z,27.10
2023-09-11T11:17:12.881Z,21.83
2023-09-11T11:20:02.153Z,27.93
2023-09-11T11:22:36.137Z,24.02
2023-09-11T11:25:08.936Z,27.17
2023-09-11T11:27:39.596Z,24.60
2023-09-11T11:30:08.018Z,25.38
2023-09-11T11:32:41.036Z,24.80
2023-09-11T11:35:11.198Z,26.38
2023-09-11T11:37:45.577Z,33.97
2023-09-11T11:40:15.005Z,30.35
2023-09-11T11:42:43.033Z,35.40
2023-09-11T11:45:11.623Z,28.63
2023-09-11T11:47:39.563Z,30.85
2023-09-11T11:50:14.208Z,33.75
2023-09-11T11:52:50.849Z,32.78
2023-09-11T11:55:22.902Z,30.65
2023-09-11T11:57:53.829Z,26.13
2023-09-11T12:00:30.426Z,32.60
2023-09-11T12:03:05.689Z,28.35
2023-09-11T12:05:33.761Z,28.20
2023-09-11T12:08:03.313Z,28.10
2023-09-11T12:10:32.870Z,26.97
2023-09-11T12:13:00.625Z,26.50
2023-09-11T12:15:30.405Z,25.77
2023-09-11T12:17:59.689Z,24.83
2023-09-11T12:20:27.375Z,25.73
2023-09-11T12:22:55.057Z,28.57
2023-09-11T12:25:22.905Z,25.30
2023-09-11T12:27:51.735Z,28.10
2023-09-11T12:30:20.446Z,25.92
2023-09-11T12:32:48.595Z,26.38
2023-09-11T12:35:31.370Z,21.33
2023-09-11T12:37:59.316Z,23.42
2023-09-11T12:40:27.288Z,26.67
2023-09-11T12:42:56.190Z,23.38
2023-09-11T12:45:24.249Z,21.95
2023-09-11T12:47:52.690Z,28.77
2023-09-11T12:50:22.862Z,26.75
2023-09-11T12:52:51.828Z,24.13
2023-09-11T12:55:21.652Z,26.10
2023-09-11T12:57:53.256Z,25.17
2023-09-11T13:00:31.973Z,27.53
2023-09-11T13:03:05.006Z,27.42
2023-09-11T13:05:34.255Z,20.38
2023-09-11T13:08:10.289Z,22.60
2023-09-11T13:10:38.359Z,27.40
2023-09-11T13:13:08.306Z,26.43
2023-09-11T13:15:37.670Z,29.42
2023-09-11T13:18:05.827Z,27.13
2023-09-11T13:20:33.817Z,23.77
2023-09-11T13:23:03.693Z,22.20
2023-09-11T13:25:31.660Z,26.43
2023-09-11T13:27:59.634Z,25.35
2023-09-11T13:30:27.609Z,19.48
2023-09-11T13:32:55.409Z,28.50
2023-09-11T13:35:23.104Z,23.77
2023-09-11T13:37:51.005Z,21.57
2023-09-11T13:40:18.667Z,23.30
2023-09-11T13:42:47.294Z,19.52
2023-09-11T13:45:16.850Z,23.98
2023-09-11T13:47:44.989Z,22.33
2023-09-11T13:50:13.364Z,24.73
2023-09-11T13:52:41.145Z,19.42
2023-09-11T13:55:09.449Z,18.85
2023-09-11T13:57:37.328Z,22.33
2023-09-11T14:00:07.267Z,23.00
2023-09-11T14:02:36.378Z,21.37
2023-09-11T14:05:04.955Z,17.45
2023-09-11T14:07:32.851Z,16.75
2023-09-11T14:10:07.496Z,18.08
2023-09-11T14:12:37.680Z,13.25
2023-09-11T14:15:05.786Z,13.17
2023-09-11T14:17:33.393Z,14.43
2023-09-11T14:20:01.175Z,14.57
2023-09-11T14:22:28.830Z,24.25
2023-09-11T14:24:56.606Z,16.83
2023-09-11T14:27:24.604Z,17.07
2023-09-11T14:29:52.548Z,23.77
2023-09-11T14:32:25.081Z,13.88
2023-09-11T14:34:55.044Z,18.02
2023-09-11T14:37:23.895Z,13.00
2023-09-11T14:39:52.448Z,13.93
2023-09-11T14:42:20.440Z,17.10
2023-09-11T14:44:48.293Z,21.00
2023-09-11T14:47:16.665Z,15.18
2023-09-11T14:49:47.717Z,15.18
2023-09-11T14:52:15.692Z,17.40
2023-09-11T14:54:53.800Z,17.75
2023-09-11T14:57:23.666Z,15.27
2023-09-11T14:59:52.061Z,11.60
2023-09-11T15:02:22.644Z,14.13
2023-09-11T15:04:52.605Z,13.77
2023-09-11T15:07:21.425Z,14.27
2023-09-11T15:09:52.778Z,14.43
2023-09-11T15:12:20.812Z,13.95
2023-09-11T15:14:52.317Z,13.23
2023-09-11T15:17:20.337Z,14.43
2023-09-11T15:19:48.430Z,12.20
2023-09-11T15:22:16.378Z,13.05
2023-09-11T15:24:44.437Z,11.45
2023-09-11T15:27:13.082Z,12.13
2023-09-11T15:29:41.605Z,13.33
2023-09-11T15:32:12.635Z,12.93
2023-09-11T15:34:42.895Z,11.27
2023-09-11T15:37:17.101Z,10.77
2023-09-11T15:39:45.327Z,17.20
2023-09-11T15:42:13.451Z,11.37
2023-09-11T15:44:41.657Z,11.38
2023-09-11T15:47:09.573Z,9.43
2023-09-11T15:49:38.299Z,10.73
2023-09-11T15:52:06.740Z,13.75
2023-09-11T15:54:35.042Z,12.13
2023-09-11T15:57:03.099Z,13.82
2023-09-11T15:59:31.286Z,11.52
2023-09-11T16:01:59.778Z,13.60
2023-09-11T16:04:27.857Z,16.15
2023-09-11T16:06:57.317Z,10.13
2023-09-11T16:09:25.149Z,11.95
2023-09-11T16:11:54.374Z,10.85
2023-09-11T16:14:22.428Z,12.65
2023-09-11T16:16:51.943Z,18.77
2023-09-11T16:19:23.132Z,11.30
2023-09-11T16:21:51.784Z,8.73
2023-09-11T16:24:19.819Z,17.77
2023-09-11T16:26:47.888Z,12.27
2023-09-11T16:29:15.993Z,13.63
2023-09-11T16:31:43.915Z,9.50
2023-09-11T16:34:12.109Z,11.75
2023-09-11T16:36:41.018Z,11.25
2023-09-11T16:39:08.990Z,8.98
2023-09-11T16:41:37.011Z,10.73
2023-09-11T16:44:05.394Z,8.53
2023-09-11T16:46:33.355Z,12.38
2023-09-11T16:49:01.461Z,14.80
2023-09-11T16:51:29.495Z,12.02
2023-09-11T16:53:57.511Z,11.38
2023-09-11T16:56:26.367Z,8.40
2023-09-11T16:58:54.431Z,13.27
2023-09-11T17:01:22.570Z,11.25
2023-09-11T17:03:50.588Z,10.77
2023-09-11T17:06:18.546Z,11.02
2023-09-11T17:08:46.470Z,7.13
2023-09-11T17:11:14.667Z,7.22
2023-09-11T17:13:46.616Z,9.27
2023-09-11T17:16:14.610Z,8.93
2023-09-11T17:18:48.075Z,13.85
2023-09-11T17:21:16.376Z,12.20
2023-09-11T17:23:44.502Z,10.65
2023-09-11T17:26:14.101Z,11.02
2023-09-11T17:28:42.278Z,8.30
2023-09-11T17:31:10.279Z,6.80
2023-09-11T17:33:38.030Z,7.33
2023-09-11T17:36:06.021Z,10.48
2023-09-11T17:38:33.857Z,8.88
2023-09-11T17:41:01.606Z,9.07
2023-09-11T17:43:30.227Z,10.23
2023-09-11T17:46:01.575Z,9.97
2023-09-11T17:48:29.384Z,17.90
2023-09-11T17:50:57.004Z,7.55
2023-09-11T17:53:24.645Z,9.77
2023-09-11T17:55:52.267Z,9.48
2023-09-11T17:58:19.845Z,7.77
2023-09-11T18:00:47.491Z,8.32
2023-09-11T18:03:15.505Z,9.77
2023-09-11T18:05:43.355Z,6.35
2023-09-11T18:08:11.126Z,5.85
2023-09-11T18:10:38.983Z,9.70
2023-09-11T18:13:06.699Z,7.65
2023-09-11T18:15:34.467Z,8.57
2023-09-11T18:18:02.204Z,7.43
2023-09-11T18:20:30.023Z,6.95
2023-09-11T18:23:03.557Z,6.37
2023-09-11T18:25:31.677Z,7.47
2023-09-11T18:27:59.544Z,9.43
2023-09-11T18:30:27.459Z,9.52
2023-09-11T18:32:56.450Z,8.95
2023-09-11T18:35:24.413Z,7.27
2023-09-11T18:37:52.476Z,11.15
2023-09-11T18:40:20.514Z,6.93
2023-09-11T18:42:48.424Z,6.57
2023-09-11T18:45:16.426Z,6.18
2023-09-11T18:47:44.561Z,7.00
2023-09-11T18:50:12.567Z,7.80
2023-09-11T18:52:43.401Z,8.63
2023-09-11T18:55:11.830Z,7.93
2023-09-11T18:57:39.780Z,7.03
2023-09-11T19:00:08.414Z,8.37
2023-09-11T19:02:36.371Z,10.65
2023-09-11T19:05:04.520Z,8.10
2023-09-11T19:07:32.522Z,11.02
2023-09-11T19:10:00.457Z,9.82
2023-09-11T19:12:28.438Z,7.57
2023-09-11T19:14:56.446Z,8.52
2023-09-11T19:17:24.369Z,7.10
2023-09-11T19:19:52.374Z,50.05
2023-09-11T19:22:20.325Z,8.90
2023-09-11T19:24:48.239Z,7.73
2023-09-11T19:27:16.105Z,7.57
2023-09-11T19:29:44.514Z,8.95
2023-09-11T19:32:13.318Z,7.47
2023-09-11T19:34:41.446Z,6.55
2023-09-11T19:37:09.280Z,7.23
2023-09-11T19:39:38.872Z,7.38
2023-09-11T19:42:06.978Z,9.85
2023-09-11T19:44:34.954Z,6.90
2023-09-11T19:47:02.779Z,6.55
2023-09-11T19:49:30.664Z,7.23
2023-09-11T19:51:58.713Z,6.82
2023-09-11T19:54:26.798Z,7.00
2023-09-11T19:56:54.824Z,7.05
2023-09-11T19:59:22.851Z,7.80
2023-09-11T20:01:50.789Z,7.00
2023-09-11T20:04:18.872Z,6.28
2023-09-11T20:06:47.735Z,6.45
2023-09-11T20:09:15.748Z,8.60
2023-09-11T20:11:46.294Z,7.22
2023-09-11T20:14:16.907Z,8.27
2023-09-11T20:16:45.362Z,6.22
2023-09-11T20:19:16.506Z,6.45
2023-09-11T20:21:44.385Z,8.98
2023-09-11T20:24:12.363Z,7.45
2023-09-11T20:26:40.263Z,7.37
2023-09-11T20:29:08.051Z,7.40
2023-09-11T20:31:35.801Z,8.65
2023-09-11T20:34:03.546Z,8.85
2023-09-11T20:36:31.329Z,7.93
2023-09-11T20:38:58.937Z,8.60
2023-09-11T20:41:26.656Z,8.55
2023-09-11T20:43:54.469Z,10.35
2023-09-11T20:46:22.384Z,6.90
2023-09-11T20:48:52.054Z,7.03
2023-09-11T20:51:20.038Z,8.70
2023-09-11T20:53:48.514Z,6.93
2023-09-11T20:56:16.233Z,7.60
2023-09-11T20:58:44.519Z,7.15
2023-09-11T21:01:12.411Z,7.20
2023-09-11T21:03:40.208Z,7.80
2023-09-11T21:06:09.951Z,8.15
2023-09-11T21:08:37.900Z,8.88
2023-09-11T21:11:05.765Z,9.75
2023-09-11T21:13:33.604Z,7.78
2023-09-11T21:16:01.263Z,7.20
2023-09-11T21:18:28.920Z,7.57
2023-09-11T21:20:56.595Z,8.27
2023-09-11T21:23:26.421Z,7.97
2023-09-11T21:25:54.146Z,10.45
2023-09-11T21:28:21.882Z,8.90
2023-09-11T21:30:50.524Z,9.75
2023-09-11T21:33:18.292Z,10.25
2023-09-11T21:35:46.157Z,8.70
2023-09-11T21:38:13.738Z,9.23
2023-09-11T21:40:41.387Z,8.67
2023-09-11T21:43:09.152Z,10.40
2023-09-11T21:45:45.773Z,9.30
2023-09-11T21:48:13.557Z,10.15
2023-09-11T21:50:41.476Z,9.93
2023-09-11T21:53:09.169Z,10.57
2023-09-11T21:55:36.875Z,9.43
2023-09-11T21:58:04.622Z,10.25
2023-09-11T22:00:32.660Z,9.48
2023-09-11T22:03:00.667Z,9.93
2023-09-11T22:05:29.193Z,9.17
2023-09-11T22:07:58.296Z,10.13
2023-09-11T22:10:25.994Z,12.30
2023-09-11T22:12:53.741Z,10.57
2023-09-11T22:15:21.467Z,12.68
2023-09-11T22:17:49.215Z,9.37
2023-09-11T22:20:16.812Z,9.32
2023-09-11T22:22:44.408Z,10.38
2023-09-11T22:25:12.189Z,9.43
2023-09-11T22:27:40.133Z,11.05
2023-09-11T22:30:08.394Z,9.60
2023-09-11T22:32:49.117Z,10.27
2023-09-11T22:35:21.209Z,10.68
2023-09-11T22:37:48.817Z,9.40
2023-09-11T22:40:16.487Z,10.18
2023-09-11T22:42:44.187Z,9.37
2023-09-11T22:45:11.942Z,12.13
2023-09-11T22:47:40.993Z,9.55
2023-09-11T22:50:09.460Z,11.95
2023-09-11T22:52:38.990Z,13.57
2023-09-11T22:55:07.554Z,11.37
2023-09-11T22:57:35.253Z,10.48
2023-09-11T23:00:03.428Z,10.00
2023-09-11T23:02:34.332Z,10.43
2023-09-11T23:05:02.069Z,12.15
2023-09-11T23:07:32.246Z,9.77
2023-09-11T23:09:59.844Z,11.68
2023-09-11T23:12:27.735Z,10.85
2023-09-11T23:14:56.583Z,10.77
2023-09-11T23:17:24.445Z,11.52
2023-09-11T23:19:52.074Z,10.53
2023-09-11T23:22:19.743Z,12.63
2023-09-11T23:24:47.346Z,10.73
2023-09-11T23:27:15.089Z,11.40
2023-09-11T23:29:43.162Z,11.68
2023-09-11T23:32:10.845Z,12.40
2023-09-11T23:34:38.627Z,10.68
2023-09-11T23:37:06.250Z,10.82
2023-09-11T23:39:33.993Z,14.25
2023-09-11T23:42:01.762Z,12.35
2023-09-11T23:44:29.412Z,10.63
2023-09-11T23:46:57.110Z,12.40
2023-09-11T23:49:24.759Z,10.38
2023-09-11T23:51:52.340Z,11.40
2023-09-11T23:54:20.403Z,11.70
2023-09-11T23:56:48.050Z,9.70
2023-09-11T23:59:16.425Z,11.77
